createdAt,value
2023-05-15T00:02:02.082Z,100038.13
2023-05-15T00:04:29.162Z,100039.91
2023-05-15T00:06:56.336Z,100030.94
2023-05-15T00:09:23.467Z,100037.22
2023-05-15T00:11:51.201Z,100027.44
2023-05-15T00:14:18.275Z,100021.22
2023-05-15T00:16:45.307Z,100022.09
2023-05-15T00:19:12.412Z,100019.44
2023-05-15T00:21:39.491Z,100020.34
2023-05-15T00:24:06.742Z,100021.25
2023-05-15T00:26:33.758Z,100020.34
2023-05-15T00:29:00.756Z,100008.78
2023-05-15T00:31:27.796Z,100003.44
2023-05-15T00:33:54.849Z,100009.66
2023-05-15T00:36:23.133Z,100001.66
2023-05-15T00:38:50.428Z,99995.41
2023-05-15T00:41:18.140Z,99988.28
2023-05-15T00:43:45.708Z,99988.25
2023-05-15T00:46:14.215Z,99984.78
2023-05-15T00:48:43.586Z,99977.59
2023-05-15T00:51:11.909Z,99980.31
2023-05-15T00:53:39.421Z,99973.19
2023-05-15T00:56:07.810Z,99967.84
2023-05-15T00:58:36.740Z,99961.69
2023-05-15T01:01:04.476Z,99988.31
2023-05-15T01:03:32.990Z,99990.09
2023-05-15T01:06:00.158Z,99990.03
2023-05-15T01:08:46.650Z,99995.41
2023-05-15T01:11:17.874Z,99990.97
2023-05-15T01:13:45.397Z,99979.47
2023-05-15T01:16:12.412Z,99969.69
2023-05-15T01:18:39.578Z,99968.81
2023-05-15T01:21:20.506Z,99977.69
2023-05-15T01:24:09.168Z,99973.22
2023-05-15T01:27:03.796Z,99966.94
2023-05-15T01:33:26.075Z,99951.88
2023-05-15T01:36:16.356Z,99943.00
2023-05-15T01:38:53.176Z,99939.47
2023-05-15T01:41:25.948Z,99938.53
2023-05-15T01:44:17.912Z,99939.38
2023-05-15T01:46:50.039Z,99938.47
2023-05-15T01:49:23.688Z,99932.31
2023-05-15T01:51:58.533Z,99926.09
2023-05-15T01:54:27.220Z,99918.97
2023-05-15T01:56:56.124Z,99921.63
2023-05-15T01:59:25.049Z,99911.84
2023-05-15T02:01:52.974Z,99912.72
2023-05-15T02:04:21.059Z,99898.53
2023-05-15T02:06:50.433Z,99912.69
2023-05-15T02:09:18.340Z,99912.75
2023-05-15T02:11:45.641Z,99927.81
2023-05-15T02:14:14.918Z,99925.09
2023-05-15T02:16:42.181Z,99925.13
2023-05-15T02:19:09.571Z,99910.09
2023-05-15T02:21:36.588Z,99902.09
2023-05-15T02:24:04.062Z,99894.06
2023-05-15T02:26:44.915Z,99891.41
2023-05-15T02:29:17.827Z,99897.63
2023-05-15T02:32:13.261Z,99893.13
2023-05-15T02:34:52.059Z,99888.72
2023-05-15T02:37:27.242Z,99895.81
2023-05-15T02:39:58.054Z,99872.75
2023-05-15T02:42:28.187Z,99877.19
2023-05-15T02:44:57.508Z,99871.88
2023-05-15T02:47:26.701Z,99865.69
2023-05-15T02:49:53.856Z,99868.38
2023-05-15T02:52:22.606Z,99847.03
2023-05-15T02:54:49.628Z,99849.69
2023-05-15T02:57:16.621Z,99834.63
2023-05-15T02:59:43.822Z,99827.50
2023-05-15T03:02:10.832Z,99842.59
2023-05-15T03:04:38.001Z,99844.31
2023-05-15T03:07:05.186Z,99832.78
2023-05-15T03:09:32.221Z,99833.59
2023-05-15T03:11:59.168Z,99823.88
2023-05-15T03:14:26.190Z,99820.31
2023-05-15T03:16:53.224Z,99805.25
2023-05-15T03:19:20.271Z,99813.28
2023-05-15T03:21:47.352Z,99799.03
2023-05-15T03:24:14.442Z,99802.63
2023-05-15T03:26:42.497Z,99800.81
2023-05-15T03:29:09.565Z,99791.09
2023-05-15T03:31:36.621Z,99789.28
2023-05-15T03:34:03.717Z,99780.44
2023-05-15T03:36:31.551Z,99790.19
2023-05-15T03:38:58.556Z,99790.19
2023-05-15T03:41:27.863Z,99786.63
2023-05-15T03:43:54.853Z,99781.31
2023-05-15T03:46:21.975Z,99777.72
2023-05-15T03:48:49.003Z,99768.84
2023-05-15T03:51:16.074Z,99772.41
2023-05-15T03:53:43.090Z,99763.56
2023-05-15T03:56:10.405Z,99759.94
2023-05-15T03:58:37.430Z,99757.31
2023-05-15T04:01:04.441Z,99767.06
2023-05-15T04:03:31.526Z,99759.97
2023-05-15T04:05:58.680Z,99759.94
2023-05-15T04:08:28.772Z,99767.06
2023-05-15T04:10:55.856Z,99754.63
2023-05-15T04:13:22.962Z,99762.63
2023-05-15T04:15:50.012Z,99755.50
2023-05-15T04:18:17.043Z,99742.25
2023-05-15T04:20:44.051Z,99742.22
2023-05-15T04:23:11.106Z,99739.59
2023-05-15T04:25:38.204Z,99736.03
2023-05-15T04:28:06.632Z,99718.28
2023-05-15T04:30:34.182Z,99729.78
2023-05-15T04:33:01.274Z,99730.63
2023-05-15T04:35:28.404Z,99726.22
2023-05-15T04:37:55.960Z,99718.22
2023-05-15T04:40:23.042Z,99714.66
2023-05-15T04:42:50.047Z,99721.75
2023-05-15T04:45:17.140Z,99719.09
2023-05-15T04:47:44.213Z,99719.97
2023-05-15T04:50:11.402Z,99708.41
2023-05-15T04:52:38.515Z,99717.31
2023-05-15T04:55:06.447Z,99709.34
2023-05-15T04:57:33.509Z,99709.34
2023-05-15T05:00:00.708Z,99712.88
2023-05-15T05:02:27.981Z,99710.28
2023-05-15T05:04:55.036Z,99702.25
2023-05-15T05:07:22.019Z,99699.63
2023-05-15T05:09:49.053Z,99688.97
2023-05-15T05:12:16.031Z,99700.47
2023-05-15T05:14:44.665Z,99703.13
2023-05-15T05:17:11.788Z,99690.75
2023-05-15T05:19:38.934Z,99681.88
2023-05-15T05:22:06.408Z,99677.47
2023-05-15T05:24:35.791Z,99673.88
2023-05-15T05:27:03.155Z,99675.63
2023-05-15T05:29:31.342Z,99665.88
2023-05-15T05:31:58.883Z,99663.16
2023-05-15T05:34:25.933Z,99666.75
2023-05-15T05:36:52.948Z,99660.53
2023-05-15T05:39:21.226Z,99658.75
2023-05-15T05:41:48.404Z,99659.66
2023-05-15T05:44:15.674Z,99653.44
2023-05-15T05:46:43.017Z,99652.56
2023-05-15T05:49:10.060Z,99660.53
2023-05-15T05:51:37.248Z,99667.69
2023-05-15T05:54:04.508Z,99665.91
2023-05-15T05:56:31.533Z,99672.13
2023-05-15T05:58:59.725Z,99667.66
2023-05-15T06:01:27.763Z,99667.66
2023-05-15T06:03:56.081Z,99663.19
2023-05-15T06:06:23.521Z,99659.63
2023-05-15T06:08:50.561Z,99672.97
2023-05-15T06:11:17.694Z,99654.34
2023-05-15T06:13:44.784Z,99670.28
2023-05-15T06:16:11.926Z,99673.88
2023-05-15T06:18:39.066Z,99676.53
2023-05-15T06:21:06.340Z,99679.19
2023-05-15T06:23:33.722Z,99677.44
2023-05-15T06:26:01.734Z,99685.41
2023-05-15T06:28:28.765Z,99684.53
2023-05-15T06:30:55.814Z,99683.63
2023-05-15T06:33:22.938Z,99690.75
2023-05-15T06:35:50.008Z,99693.44
2023-05-15T06:38:17.062Z,99691.66
2023-05-15T06:40:44.079Z,99693.44
2023-05-15T06:43:11.177Z,99692.53
2023-05-15T06:45:38.199Z,99686.28
2023-05-15T06:48:05.450Z,99704.94
2023-05-15T06:50:32.458Z,99690.63
2023-05-15T06:52:59.435Z,99682.69
2023-05-15T06:55:26.755Z,99697.75
2023-05-15T06:57:54.044Z,99684.47
2023-05-15T07:00:21.303Z,99688.91
2023-05-15T07:02:48.474Z,99662.22
2023-05-15T07:05:15.774Z,99680.81
2023-05-15T07:07:43.023Z,99679.03
2023-05-15T07:10:10.418Z,99670.16
2023-05-15T07:12:37.424Z,99680.78
2023-05-15T07:15:05.796Z,99686.06
2023-05-15T07:17:34.112Z,99690.47
2023-05-15T07:20:01.499Z,99691.38
2023-05-15T07:22:29.230Z,99684.38
2023-05-15T07:24:56.316Z,99680.78
2023-05-15T07:27:23.469Z,99678.84
2023-05-15T07:29:50.538Z,99679.81
2023-05-15T07:32:17.620Z,99671.84
2023-05-15T07:34:44.608Z,99679.81
2023-05-15T07:37:11.611Z,99680.56
2023-05-15T07:39:38.662Z,99679.59
2023-05-15T07:42:06.060Z,99667.28
2023-05-15T07:44:33.056Z,99672.72
2023-05-15T07:47:00.097Z,99670.03
2023-05-15T07:49:27.083Z,99675.31
2023-05-15T07:51:54.089Z,99675.28
2023-05-15T07:54:21.270Z,99678.84
2023-05-15T07:56:48.346Z,99663.88
2023-05-15T07:59:15.667Z,99655.00
2023-05-15T08:01:42.618Z,99674.44
2023-05-15T08:04:09.929Z,99659.41
2023-05-15T08:06:38.400Z,99655.91
2023-05-15T08:09:05.522Z,99654.91
2023-05-15T08:11:32.510Z,99647.06
2023-05-15T08:13:59.565Z,99652.44
2023-05-15T08:16:26.734Z,99653.25
2023-05-15T08:18:58.261Z,99656.75
2023-05-15T08:21:25.375Z,99637.94
2023-05-15T08:23:54.713Z,99632.53
2023-05-15T08:26:21.809Z,99634.19
2023-05-15T08:28:48.824Z,99629.81
2023-05-15T08:31:16.223Z,99638.69
2023-05-15T08:33:43.311Z,99624.44
2023-05-15T08:36:10.459Z,99633.34
2023-05-15T08:38:37.442Z,99629.81
2023-05-15T08:41:38.800Z,99635.22
2023-05-15T08:44:11.128Z,99626.41
2023-05-15T08:46:38.874Z,99625.44
2023-05-15T08:49:19.042Z,99617.53
2023-05-15T08:51:46.479Z,99616.66
2023-05-15T08:54:14.013Z,99610.31
2023-05-15T08:56:42.109Z,99603.22
2023-05-15T08:59:09.242Z,99605.91
2023-05-15T09:01:36.976Z,99600.50
2023-05-15T09:04:04.887Z,99600.38
2023-05-15T09:06:34.458Z,99603.16
2023-05-15T09:09:02.233Z,99605.75
2023-05-15T09:11:31.857Z,99594.91
2023-05-15T09:13:59.728Z,99611.78
2023-05-15T09:16:27.625Z,99609.97
2023-05-15T09:18:55.021Z,99617.31
2023-05-15T09:21:24.680Z,99617.28
2023-05-15T09:23:55.525Z,99623.56
2023-05-15T09:26:23.387Z,99615.69
2023-05-15T09:28:50.528Z,99612.19
2023-05-15T09:31:20.322Z,99621.03
2023-05-15T09:33:47.350Z,99607.63
2023-05-15T09:36:22.926Z,99597.03
2023-05-15T09:38:57.643Z,99589.03
2023-05-15T09:41:26.888Z,99596.06
2023-05-15T09:43:56.640Z,99603.09
2023-05-15T09:46:24.493Z,99588.94
2023-05-15T09:48:55.804Z,99589.75
2023-05-15T09:51:23.003Z,99587.09
2023-05-15T09:53:53.004Z,99581.81
2023-05-15T09:56:20.156Z,99579.09
2023-05-15T09:58:58.242Z,99573.84
2023-05-15T10:01:27.384Z,99584.28
2023-05-15T10:04:06.586Z,99564.91
2023-05-15T10:06:40.059Z,99563.09
2023-05-15T10:09:08.903Z,99558.53
2023-05-15T10:11:38.816Z,99557.84
2023-05-15T10:14:08.305Z,99565.09
2023-05-15T10:16:37.731Z,99572.13
2023-05-15T10:19:08.055Z,99565.13
2023-05-15T10:21:38.738Z,99564.03
2023-05-15T10:24:07.732Z,99562.22
2023-05-15T10:26:43.326Z,99570.13
2023-05-15T10:29:13.159Z,99560.41
2023-05-15T10:31:41.730Z,99562.22
2023-05-15T10:34:10.898Z,99568.25
2023-05-15T10:36:39.086Z,99579.88
2023-05-15T10:39:07.888Z,99579.97
2023-05-15T10:41:38.679Z,99581.75
2023-05-15T10:44:06.128Z,99583.53
2023-05-15T10:46:36.882Z,99584.38
2023-05-15T10:49:05.287Z,99580.06
2023-05-15T10:51:33.572Z,99574.56
2023-05-15T10:54:03.682Z,99563.13
2023-05-15T10:56:36.999Z,99558.53
2023-05-15T10:59:10.477Z,99555.22
2023-05-15T11:01:40.215Z,99558.72
2023-05-15T11:04:22.864Z,99555.81
2023-05-15T11:06:51.002Z,99555.94
2023-05-15T11:09:35.426Z,99558.00
2023-05-15T11:12:13.881Z,99563.09
2023-05-15T11:15:02.699Z,99552.44
2023-05-15T11:17:35.641Z,99558.41
2023-05-15T11:20:02.848Z,99557.50
2023-05-15T11:22:35.948Z,99557.41
2023-05-15T11:25:12.609Z,99558.00
2023-05-15T11:27:45.529Z,99560.69
2023-05-15T11:30:23.062Z,99543.31
2023-05-15T11:32:54.160Z,99552.09
2023-05-15T11:35:34.257Z,99539.72
2023-05-15T11:38:15.509Z,99543.28
2023-05-15T11:40:57.028Z,99544.38
2023-05-15T11:43:26.752Z,99534.50
2023-05-15T11:45:57.974Z,99541.63
2023-05-15T11:48:39.378Z,99527.38
2023-05-15T11:51:21.265Z,99539.91
2023-05-15T11:53:51.586Z,99531.00
2023-05-15T11:56:28.496Z,99532.66
2023-05-15T11:58:58.424Z,99525.72
2023-05-15T12:01:26.220Z,99530.13
2023-05-15T12:03:56.780Z,99524.00
2023-05-15T12:06:24.568Z,99516.72
2023-05-15T12:08:53.363Z,99510.66
2023-05-15T12:11:25.233Z,99522.16
2023-05-15T12:13:54.290Z,99509.84
2023-05-15T12:16:28.558Z,99510.75
2023-05-15T12:18:59.075Z,99526.56
2023-05-15T12:21:30.871Z,99514.19
2023-05-15T12:24:07.823Z,99512.56
2023-05-15T12:26:36.221Z,99515.09
2023-05-15T12:29:05.283Z,99515.13
2023-05-15T12:31:35.701Z,99518.69
2023-05-15T12:34:03.014Z,99511.81
2023-05-15T12:36:31.051Z,99519.59
2023-05-15T12:38:58.885Z,99508.09
2023-05-15T12:41:29.496Z,99493.88
2023-05-15T12:43:56.633Z,99499.38
2023-05-15T12:46:26.368Z,99485.31
2023-05-15T12:48:53.419Z,99493.13
2023-05-15T12:51:23.030Z,99485.13
2023-05-15T12:53:53.541Z,99479.03
2023-05-15T12:56:21.450Z,99473.84
2023-05-15T12:58:48.766Z,99476.38
2023-05-15T13:01:16.635Z,99474.66
2023-05-15T13:03:44.581Z,99453.56
2023-05-15T13:06:11.899Z,99465.91
2023-05-15T13:08:42.419Z,99462.38
2023-05-15T13:11:16.679Z,99447.38
2023-05-15T13:13:47.561Z,99443.72
2023-05-15T13:16:31.155Z,99469.44
2023-05-15T13:18:59.029Z,99443.00
2023-05-15T13:21:26.239Z,99442.13
2023-05-15T13:23:53.507Z,99439.47
2023-05-15T13:26:20.835Z,99439.47
2023-05-15T13:28:48.593Z,99425.38
2023-05-15T13:31:15.671Z,99441.28
2023-05-15T13:33:42.938Z,99442.16
2023-05-15T13:36:10.050Z,99450.06
2023-05-15T13:38:37.077Z,99437.56
2023-05-15T13:41:06.958Z,99431.50
2023-05-15T13:43:33.933Z,99432.41
2023-05-15T13:46:00.984Z,99429.81
2023-05-15T13:48:28.092Z,99421.81
2023-05-15T13:50:55.069Z,99428.03
2023-05-15T13:53:22.056Z,99419.22
2023-05-15T13:55:49.079Z,99417.44
2023-05-15T13:58:16.636Z,99413.03
2023-05-15T14:00:45.239Z,99414.78
2023-05-15T14:03:15.050Z,99421.91
2023-05-15T14:05:42.492Z,99413.88
2023-05-15T14:08:09.578Z,99414.75
2023-05-15T14:10:37.434Z,99411.28
2023-05-15T14:13:04.475Z,99420.09
2023-05-15T14:15:31.478Z,99418.31
2023-05-15T14:17:58.541Z,99427.16
2023-05-15T14:20:25.870Z,99430.72
2023-05-15T14:22:52.988Z,99420.13
2023-05-15T14:25:20.017Z,99421.88
2023-05-15T14:27:47.700Z,99410.38
2023-05-15T14:30:14.975Z,99414.88
2023-05-15T14:32:42.169Z,99409.56
2023-05-15T14:35:09.287Z,99397.16
2023-05-15T14:37:37.420Z,99401.53
2023-05-15T14:40:05.130Z,99384.78
2023-05-15T14:42:32.500Z,99390.03
2023-05-15T14:44:59.796Z,99385.66
2023-05-15T14:47:28.536Z,99388.31
2023-05-15T14:49:55.748Z,99394.53
2023-05-15T14:52:22.868Z,99405.13
2023-05-15T14:55:00.751Z,99390.97
2023-05-15T14:57:35.492Z,99387.44
2023-05-15T15:00:02.845Z,99392.69
2023-05-15T15:02:29.953Z,99385.66
2023-05-15T15:04:57.947Z,99386.53
2023-05-15T15:07:30.771Z,99391.81
2023-05-15T15:09:57.837Z,99395.38
2023-05-15T15:12:24.891Z,99399.81
2023-05-15T15:14:51.932Z,99411.34
2023-05-15T15:17:18.925Z,99413.13
2023-05-15T15:19:45.993Z,99419.31
2023-05-15T15:22:12.993Z,99419.31
2023-05-15T15:24:39.991Z,99420.19
2023-05-15T15:27:07.018Z,99420.22
2023-05-15T15:29:34.032Z,99397.19
2023-05-15T15:32:01.054Z,99406.00
2023-05-15T15:34:28.071Z,99390.00
2023-05-15T15:36:55.060Z,99405.94
2023-05-15T15:39:22.042Z,99406.81
2023-05-15T15:41:49.163Z,99401.47
2023-05-15T15:44:16.133Z,99387.25
2023-05-15T15:46:43.150Z,99385.44
2023-05-15T15:49:10.161Z,99388.13
2023-05-15T15:51:37.254Z,99368.53
2023-05-15T15:54:04.312Z,99376.47
2023-05-15T15:56:31.332Z,99369.38
2023-05-15T15:58:58.397Z,99366.69
2023-05-15T16:01:26.057Z,99377.47
2023-05-15T16:03:53.218Z,99355.38
2023-05-15T16:06:20.259Z,99364.06
2023-05-15T16:08:47.236Z,99367.56
2023-05-15T16:11:15.683Z,99359.72
2023-05-15T16:13:42.679Z,99361.41
2023-05-15T16:16:09.648Z,99362.38
2023-05-15T16:18:36.748Z,99366.84
2023-05-15T16:21:04.130Z,99377.50
2023-05-15T16:23:36.029Z,99362.47
2023-05-15T16:26:06.309Z,99369.44
2023-05-15T16:28:33.306Z,99380.22
2023-05-15T16:31:00.987Z,99372.25
2023-05-15T16:33:29.597Z,99384.66
2023-05-15T16:35:57.362Z,99374.88
2023-05-15T16:38:24.738Z,99365.09
2023-05-15T16:40:51.990Z,99362.44
2023-05-15T16:43:19.004Z,99352.72
2023-05-15T16:45:46.294Z,99366.03
2023-05-15T16:48:13.355Z,99358.94
2023-05-15T16:50:40.422Z,99361.69
2023-05-15T16:53:07.501Z,99361.66
2023-05-15T16:55:34.798Z,99358.09
2023-05-15T16:58:01.846Z,99359.91
2023-05-15T17:00:29.008Z,99362.59
2023-05-15T17:02:56.246Z,99350.13
2023-05-15T17:05:23.271Z,99363.47
2023-05-15T17:07:50.231Z,99369.63
2023-05-15T17:10:17.288Z,99368.81
2023-05-15T17:12:44.848Z,99357.28
2023-05-15T17:15:13.242Z,99364.38
2023-05-15T17:17:40.362Z,99363.47
2023-05-15T17:20:08.659Z,99360.84
2023-05-15T17:22:35.920Z,99374.16
2023-05-15T17:25:04.627Z,99371.50
2023-05-15T17:27:32.350Z,99364.41
2023-05-15T17:29:59.406Z,99363.50
2023-05-15T17:32:26.642Z,99354.66
2023-05-15T17:34:53.628Z,99345.78
2023-05-15T17:37:20.721Z,99352.91
2023-05-15T17:39:47.737Z,99353.78
2023-05-15T17:42:14.677Z,99342.25
2023-05-15T17:44:41.710Z,99371.50
2023-05-15T17:47:10.227Z,99365.28
2023-05-15T17:49:38.732Z,99372.38
2023-05-15T17:52:08.729Z,99375.03
2023-05-15T17:54:36.012Z,99378.59
2023-05-15T17:57:03.211Z,99386.56
2023-05-15T17:59:31.245Z,99393.66
2023-05-15T18:01:58.537Z,99398.09
2023-05-15T18:04:25.787Z,99391.84
2023-05-15T18:06:53.075Z,99387.41
2023-05-15T18:09:24.365Z,99400.72
2023-05-15T18:11:52.006Z,99401.59
2023-05-15T18:14:19.028Z,99398.06
2023-05-15T18:16:46.068Z,99398.97
2023-05-15T18:19:13.258Z,99404.25
2023-05-15T18:21:40.434Z,99406.06
2023-05-15T18:24:07.575Z,99414.91
2023-05-15T18:26:34.680Z,99416.69
2023-05-15T18:29:01.837Z,99420.25
2023-05-15T18:31:28.837Z,99428.19
2023-05-15T18:33:55.866Z,99426.41
2023-05-15T18:36:22.897Z,99436.16
2023-05-15T18:38:49.873Z,99441.50
2023-05-15T18:41:16.830Z,99449.44
2023-05-15T18:43:43.892Z,99463.66
2023-05-15T18:46:10.916Z,99467.19
2023-05-15T18:48:37.935Z,99451.22
2023-05-15T18:51:05.052Z,99429.94
2023-05-15T18:53:32.049Z,99416.59
2023-05-15T18:55:59.024Z,99404.22
2023-05-15T18:58:26.058Z,99424.56
2023-05-15T19:00:53.136Z,99435.19
2023-05-15T19:03:20.879Z,99433.38
2023-05-15T19:05:47.984Z,99437.78
2023-05-15T19:08:15.067Z,99433.38
2023-05-15T19:10:47.211Z,99436.88
2023-05-15T19:13:14.260Z,99420.88
2023-05-15T19:15:41.289Z,99431.47
2023-05-15T19:18:08.463Z,99432.28
2023-05-15T19:20:35.490Z,99441.13
2023-05-15T19:23:02.462Z,99424.28
2023-05-15T19:25:29.421Z,99426.03
2023-05-15T19:27:56.393Z,99426.00
2023-05-15T19:30:23.491Z,99427.81
2023-05-15T19:32:50.826Z,99426.13
2023-05-15T19:35:17.984Z,99428.69
2023-05-15T19:37:45.119Z,99430.38
2023-05-15T19:40:12.723Z,99426.75
2023-05-15T19:42:39.741Z,99430.34
2023-05-15T19:45:07.663Z,99433.03
2023-05-15T19:47:34.684Z,99423.16
2023-05-15T19:50:02.148Z,99424.97
2023-05-15T19:52:30.071Z,99417.84
2023-05-15T19:54:57.015Z,99424.84
2023-05-15T19:57:24.027Z,99424.09
2023-05-15T19:59:51.096Z,99418.75
2023-05-15T20:02:18.129Z,99416.19
2023-05-15T20:04:45.159Z,99428.44
2023-05-15T20:07:12.975Z,99421.38
2023-05-15T20:09:40.219Z,99421.38
2023-05-15T20:12:07.404Z,99416.06
2023-05-15T20:14:34.455Z,99413.38
2023-05-15T20:17:01.628Z,99417.78
2023-05-15T20:19:31.498Z,99424.06
2023-05-15T20:21:58.622Z,99423.16
2023-05-15T20:24:26.306Z,99421.50
2023-05-15T20:26:53.393Z,99429.47
2023-05-15T20:29:20.396Z,99427.66
2023-05-15T20:31:47.605Z,99426.72
2023-05-15T20:34:14.960Z,99421.44
2023-05-15T20:36:42.583Z,99421.50
2023-05-15T20:39:10.641Z,99426.84
2023-05-15T20:41:37.693Z,99418.88
2023-05-15T20:44:04.809Z,99425.06
2023-05-15T20:46:31.956Z,99425.94
2023-05-15T20:48:59.152Z,99425.94
2023-05-15T20:51:26.235Z,99424.16
2023-05-15T20:53:53.317Z,99428.63
2023-05-15T20:56:21.214Z,99428.59
2023-05-15T20:58:48.357Z,99419.63
2023-05-15T21:01:16.154Z,99424.19
2023-05-15T21:03:43.773Z,99424.16
2023-05-15T21:06:10.923Z,99418.78
2023-05-15T21:08:37.963Z,99423.13
2023-05-15T21:11:04.960Z,99426.69
2023-05-15T21:13:31.951Z,99417.88
2023-05-15T21:15:58.923Z,99430.25
2023-05-15T21:18:26.008Z,99418.75
2023-05-15T21:20:53.164Z,99415.25
2023-05-15T21:23:21.301Z,99414.34
2023-05-15T21:25:48.351Z,99401.13
2023-05-15T21:28:15.939Z,99409.03
2023-05-15T21:30:43.075Z,99409.19
2023-05-15T21:33:10.173Z,99416.19
2023-05-15T21:35:38.052Z,99420.69
2023-05-15T21:38:05.341Z,99422.38
2023-05-15T21:40:32.465Z,99424.09
2023-05-15T21:42:59.501Z,99405.59
2023-05-15T21:45:26.534Z,99409.13
2023-05-15T21:47:53.672Z,99398.50
2023-05-15T21:50:20.737Z,99412.59
2023-05-15T21:52:50.422Z,99411.78
2023-05-15T21:55:18.166Z,99415.22
2023-05-15T21:57:45.435Z,99415.31
2023-05-15T22:00:14.111Z,99418.78
2023-05-15T22:02:41.341Z,99421.41
2023-05-15T22:05:08.785Z,99429.28
2023-05-15T22:07:35.810Z,99428.25
2023-05-15T22:10:05.532Z,99435.44
2023-05-15T22:12:33.212Z,99436.31
2023-05-15T22:15:00.471Z,99436.41
2023-05-15T22:17:29.171Z,99439.84
2023-05-15T22:20:07.025Z,99449.53
2023-05-15T22:22:35.668Z,99442.31
2023-05-15T22:25:02.836Z,99453.00
2023-05-15T22:27:30.140Z,99449.47
2023-05-15T22:29:57.274Z,99448.44
2023-05-15T22:32:24.513Z,99452.94
2023-05-15T22:34:51.615Z,99449.31
2023-05-15T22:37:19.112Z,99449.44
2023-05-15T22:39:46.348Z,99458.38
2023-05-15T22:42:13.409Z,99460.97
2023-05-15T22:44:40.354Z,99460.00
2023-05-15T22:47:07.808Z,99468.03
2023-05-15T22:49:34.885Z,99462.84
2023-05-15T22:52:02.111Z,99463.56
2023-05-15T22:54:29.147Z,99465.25
2023-05-15T22:56:56.473Z,99464.47
2023-05-15T22:59:23.463Z,99465.25
2023-05-15T23:01:50.655Z,99458.91
2023-05-15T23:04:18.208Z,99464.16
2023-05-15T23:06:45.775Z,99457.94
2023-05-15T23:09:12.802Z,99461.56
2023-05-15T23:11:39.783Z,99466.81
2023-05-15T23:14:08.365Z,99455.47
2023-05-15T23:16:36.303Z,99457.13
2023-05-15T23:19:04.107Z,99446.38
2023-05-15T23:21:31.313Z,99459.59
2023-05-15T23:23:58.319Z,99449.00
2023-05-15T23:26:26.071Z,99456.78
2023-05-15T23:28:53.120Z,99456.94
2023-05-15T23:31:20.755Z,99447.16
2023-05-15T23:33:47.803Z,99451.59
2023-05-15T23:36:14.817Z,99446.25
2023-05-15T23:38:41.957Z,99454.09
2023-05-15T23:41:09.457Z,99453.28
2023-05-15T23:43:36.509Z,99456.00
2023-05-15T23:46:03.679Z,99444.25
2023-05-15T23:48:31.755Z,99449.50
2023-05-15T23:50:58.799Z,99442.63
2023-05-15T23:53:25.894Z,99443.53
2023-05-15T23:55:53.575Z,99443.53
2023-05-15T23:58:21.521Z,99448.72
